Chimayo, New Mexico
Current Conditions -  °F | °C
As of 10:35 PM on Tuesday 21 Oct 2014 (Local Time) from KLAM Reporting Station
Broken Clouds Broken Clouds  
Wind Chill: 51°   Ceiling: 11000
Heat Index: 51°   Visibility: 10mi
Dew Point: 42°   Wind: 7mph
Humidity: 73%   Direction: 190°S
Pressure: 30.19"   Gusts: NA
Location:  36°N, 105.93°W
Report Text: KLAM 220435Z AUTO 19006KT 10SM BKN110 11/06 A3019 RMK AO2 T01050058
Loading
Personal Weather Stations






























Interactive Weather Map
Tropical Storm Tracking
New forecast layout! Learn more

10-Day Weather Forecast

Advertisements
Track Severe Weather on mobile